createdAt,value
2016-04-22T00:00:25.647Z,0
2016-04-22T00:01:25.635Z,0
2016-04-22T00:02:25.685Z,0
2016-04-22T00:03:25.733Z,0
2016-04-22T00:04:25.761Z,0
2016-04-22T00:05:25.780Z,0
2016-04-22T00:06:25.814Z,0
2016-04-22T00:07:25.848Z,0
2016-04-22T00:08:25.928Z,0
2016-04-22T00:09:25.900Z,0
2016-04-22T00:10:25.934Z,0
2016-04-22T00:11:25.983Z,0
2016-04-22T00:12:26.002Z,0
2016-04-22T00:13:26.052Z,0
2016-04-22T00:14:26.055Z,0
2016-04-22T00:15:26.119Z,0
2016-04-22T00:16:26.153Z,0
2016-04-22T00:17:26.171Z,0
2016-04-22T00:18:26.394Z,0
2016-04-22T00:19:40.396Z,0
2016-04-22T00:20:26.258Z,0
2016-04-22T00:21:26.291Z,0
2016-04-22T00:22:26.326Z,0
2016-04-22T00:23:26.360Z,0
2016-04-22T00:24:26.410Z,0
2016-04-22T00:25:26.427Z,0
2016-04-22T00:26:26.462Z,0
2016-04-22T00:27:26.480Z,0
2016-04-22T00:28:26.529Z,0
2016-04-22T00:29:26.563Z,0
2016-04-22T00:30:26.613Z,0
2016-04-22T00:31:26.616Z,0
2016-04-22T00:32:26.649Z,0
2016-04-22T00:33:26.684Z,0
2016-04-22T00:34:26.717Z,0
2016-04-22T00:35:26.751Z,0
2016-04-22T00:36:26.786Z,0
2016-04-22T00:37:26.805Z,0
2016-04-22T00:38:26.839Z,0
2016-04-22T00:39:26.872Z,0
2016-04-22T00:40:26.907Z,0
2016-04-22T00:41:26.941Z,0
2016-04-22T00:42:26.990Z,0
2016-04-22T00:43:27.007Z,0
2016-04-22T00:44:27.027Z,0
2016-04-22T00:45:27.076Z,0
2016-04-22T00:46:27.110Z,0
2016-04-22T00:47:27.143Z,0
2016-04-22T00:48:27.162Z,0
2016-04-22T00:49:27.195Z,0
2016-04-22T00:50:27.231Z,0
2016-04-22T00:51:27.248Z,0
2016-04-22T00:52:27.298Z,0
2016-04-22T00:53:27.332Z,0
2016-04-22T00:54:27.351Z,0
2016-04-22T00:55:27.384Z,0
2016-04-22T00:56:27.433Z,0
2016-04-22T00:57:27.467Z,0
2016-04-22T00:58:27.470Z,0
2016-04-22T00:59:27.505Z,0
2016-04-22T01:00:27.553Z,0
2016-04-22T01:01:27.572Z,0
2016-04-22T01:02:27.621Z,0
2016-04-22T01:03:27.655Z,0
2016-04-22T01:04:27.705Z,0
2016-04-22T01:05:27.724Z,0
2016-04-22T01:06:27.741Z,0
2016-04-22T01:07:27.776Z,0
2016-04-22T01:08:27.810Z,0
2016-04-22T01:09:27.843Z,0
2016-04-22T01:10:27.862Z,0
2016-04-22T01:11:27.927Z,0
2016-04-22T01:12:27.930Z,0
2016-04-22T01:13:27.963Z,0
2016-04-22T01:14:27.998Z,0
2016-04-22T01:15:28.048Z,0
2016-04-22T01:16:28.065Z,0
2016-04-22T01:17:28.099Z,0
2016-04-22T01:18:28.118Z,0
2016-04-22T01:19:28.183Z,0
2016-04-22T01:20:28.201Z,0
2016-04-22T01:21:28.220Z,0
2016-04-22T01:22:28.254Z,0
2016-04-22T01:23:28.287Z,0
2016-04-22T01:24:28.337Z,0
2016-04-22T01:25:28.356Z,0
2016-04-22T01:26:28.389Z,0
2016-04-22T01:27:28.408Z,0
2016-04-22T01:28:28.442Z,0
2016-04-22T01:29:28.475Z,0
2016-04-22T01:30:28.509Z,0
2016-04-22T01:31:28.559Z,0
2016-04-22T01:32:28.561Z,0
2016-04-22T01:33:28.596Z,0
2016-04-22T01:34:28.630Z,0
2016-04-22T01:35:28.664Z,0
2016-04-22T01:36:28.697Z,0
2016-04-22T01:37:28.732Z,0
2016-04-22T01:38:28.766Z,0
2016-04-22T01:39:28.799Z,0
2016-04-22T01:40:28.833Z,0
2016-04-22T01:41:28.868Z,0
2016-04-22T01:42:28.886Z,0
2016-04-22T01:43:28.919Z,0
2016-04-22T01:44:28.954Z,0
2016-04-22T01:45:28.971Z,0
2016-04-22T01:46:29.021Z,0
2016-04-22T01:47:29.055Z,0
2016-04-22T01:48:29.074Z,0
2016-04-22T01:49:29.107Z,0
2016-04-22T01:50:29.157Z,0
2016-04-22T01:51:29.160Z,0
2016-04-22T01:52:29.193Z,0
2016-04-22T01:53:29.228Z,0
2016-04-22T01:54:29.262Z,0
2016-04-22T01:55:29.327Z,0
2016-04-22T01:56:29.329Z,0
2016-04-22T01:57:29.364Z,0
2016-04-22T01:58:29.381Z,0
2016-04-22T01:59:29.416Z,0
2016-04-22T02:00:29.294Z,0
2016-04-22T02:01:29.484Z,0
2016-04-22T02:02:29.517Z,0
2016-04-22T02:03:29.552Z,0
2016-04-22T02:04:29.586Z,0
2016-04-22T02:05:29.619Z,0
2016-04-22T02:06:29.638Z,0
2016-04-22T02:07:29.688Z,0
2016-04-22T02:08:29.691Z,0
2016-04-22T02:09:29.739Z,0
2016-04-22T02:10:29.774Z,0
2016-04-22T02:11:29.808Z,0
2016-04-22T02:12:29.826Z,0
2016-04-22T02:13:29.860Z,0
2016-04-22T02:14:29.894Z,0
2016-04-22T02:15:29.927Z,0
2016-04-22T02:16:29.962Z,0
2016-04-22T02:17:29.980Z,0
2016-04-22T02:18:30.029Z,0
2016-04-22T02:19:30.048Z,0
2016-04-22T02:20:30.082Z,0
2016-04-22T02:21:30.116Z,0
2016-04-22T02:22:30.165Z,0
2016-04-22T02:23:30.215Z,0
2016-04-22T02:24:30.201Z,0
2016-04-22T02:25:30.236Z,0
2016-04-22T02:26:30.270Z,0
2016-04-22T02:27:30.288Z,0
2016-04-22T02:28:30.337Z,0
2016-04-22T02:29:30.356Z,0
2016-04-22T02:30:30.390Z,0
2016-04-22T02:31:30.283Z,0
2016-04-22T02:32:30.473Z,0
2016-04-22T02:33:30.491Z,0
2016-04-22T02:34:30.510Z,0
2016-04-22T02:35:30.559Z,0
2016-04-22T02:36:30.578Z,0
2016-04-22T02:37:30.611Z,0
2016-04-22T02:38:30.646Z,0
2016-04-22T02:39:30.680Z,0
2016-04-22T02:40:30.713Z,0
2016-04-22T02:41:30.732Z,0
2016-04-22T02:42:30.750Z,0
2016-04-22T02:43:30.800Z,0
2016-04-22T02:44:30.833Z,0
2016-04-22T02:45:30.852Z,0
2016-04-22T02:46:30.901Z,0
2016-04-22T02:47:30.920Z,0
2016-04-22T02:48:30.938Z,0
2016-04-22T02:49:30.987Z,0
2016-04-22T02:50:30.849Z,0
2016-04-22T02:51:31.040Z,0
2016-04-22T02:52:31.090Z,0
2016-04-22T02:53:31.123Z,0
2016-04-22T02:54:31.142Z,0
2016-04-22T02:55:31.175Z,0
2016-04-22T02:56:31.195Z,0
2016-04-22T02:57:31.229Z,0
2016-04-22T02:58:31.245Z,0
2016-04-22T02:59:31.296Z,0
2016-04-22T03:00:31.345Z,0
2016-04-22T03:01:31.348Z,0
2016-04-22T03:02:31.367Z,0
2016-04-22T03:03:31.400Z,0
2016-04-22T03:04:31.278Z,0
2016-04-22T03:05:31.483Z,0
2016-04-22T03:06:31.486Z,0
2016-04-22T03:07:31.536Z,0
2016-04-22T03:08:31.554Z,0
2016-04-22T03:09:31.619Z,0
2016-04-22T03:10:31.622Z,0
2016-04-22T03:11:31.641Z,0
2016-04-22T03:12:31.675Z,0
2016-04-22T03:13:31.708Z,0
2016-04-22T03:14:31.743Z,0
2016-04-22T03:15:31.777Z,0
2016-04-22T03:16:31.810Z,0
2016-04-22T03:17:31.844Z,0
2016-04-22T03:18:31.879Z,0
2016-04-22T03:19:31.740Z,0
2016-04-22T03:20:31.915Z,0
2016-04-22T03:21:31.965Z,0
2016-04-22T03:22:31.998Z,0
2016-04-22T03:23:32.032Z,0
2016-04-22T03:24:32.066Z,0
2016-04-22T03:25:32.101Z,0
2016-04-22T03:26:32.119Z,0
2016-04-22T03:27:32.168Z,0
2016-04-22T03:28:32.187Z,0
2016-04-22T03:29:32.220Z,0
2016-04-22T03:30:32.270Z,0
2016-04-22T03:31:32.273Z,0
2016-04-22T03:32:32.306Z,0
2016-04-22T03:33:32.340Z,0
2016-04-22T03:34:32.374Z,0
2016-04-22T03:35:32.392Z,0
2016-04-22T03:36:32.427Z,0
2016-04-22T03:37:32.460Z,0
2016-04-22T03:38:32.495Z,0
2016-04-22T03:39:32.528Z,0
2016-04-22T03:40:32.547Z,0
2016-04-22T03:41:32.581Z,0
2016-04-22T03:42:32.614Z,0
2016-04-22T03:43:32.649Z,4
2016-04-22T03:44:32.683Z,4
2016-04-22T03:45:32.716Z,0
2016-04-22T03:46:32.766Z,0
2016-04-22T03:47:32.769Z,4
2016-04-22T03:48:32.802Z,0
2016-04-22T03:49:32.837Z,4
2016-04-22T03:50:32.854Z,4
2016-04-22T03:51:32.904Z,4
2016-04-22T03:52:32.923Z,4
2016-04-22T03:53:32.957Z,8
2016-04-22T03:54:32.976Z,8
2016-04-22T03:55:33.025Z,8
2016-04-22T03:56:33.059Z,8
2016-04-22T03:57:33.077Z,8
2016-04-22T03:58:33.111Z,12
2016-04-22T03:59:33.145Z,16
2016-04-22T04:00:33.179Z,16
2016-04-22T04:01:33.197Z,20
2016-04-22T04:02:33.231Z,20
2016-04-22T04:03:33.280Z,24
2016-04-22T04:04:33.298Z,28
2016-04-22T04:05:33.333Z,32
2016-04-22T04:06:33.350Z,36
2016-04-22T04:07:33.386Z,40
2016-04-22T04:08:33.419Z,48
2016-04-22T04:09:33.453Z,56
2016-04-22T04:10:33.487Z,60
2016-04-22T04:11:33.521Z,68
2016-04-22T04:12:33.555Z,80
2016-04-22T04:13:33.588Z,88
2016-04-22T04:14:33.607Z,96
2016-04-22T04:15:33.625Z,108
2016-04-22T04:16:33.674Z,116
2016-04-22T04:17:33.693Z,128
2016-04-22T04:18:33.743Z,140
2016-04-22T04:19:33.776Z,156
2016-04-22T04:20:33.795Z,176
2016-04-22T04:21:33.657Z,188
2016-04-22T04:22:33.877Z,212
2016-04-22T04:23:33.934Z,232
2016-04-22T04:24:34.008Z,252
2016-04-22T04:25:34.080Z,276
2016-04-22T04:26:34.153Z,300
2016-04-22T04:27:34.200Z,332
2016-04-22T04:28:34.264Z,360
2016-04-22T04:29:34.298Z,400
2016-04-22T04:30:34.345Z,436
2016-04-22T04:31:34.409Z,468
2016-04-22T04:32:34.422Z,504
2016-04-22T04:33:34.461Z,536
2016-04-22T04:34:34.500Z,572
2016-04-22T04:35:34.538Z,612
2016-04-22T04:36:34.563Z,652
2016-04-22T04:37:34.615Z,688
2016-04-22T04:38:34.651Z,724
2016-04-22T04:39:34.687Z,764
2016-04-22T04:40:34.707Z,808
2016-04-22T04:41:34.743Z,856
2016-04-22T04:42:34.779Z,900
2016-04-22T04:43:34.735Z,936
2016-04-22T04:44:34.831Z,964
2016-04-22T04:45:34.866Z,996
2016-04-22T04:46:34.884Z,1036
2016-04-22T04:47:34.950Z,1072
2016-04-22T04:48:34.985Z,1112
2016-04-22T04:49:34.988Z,1160
2016-04-22T04:50:35.038Z,1200
2016-04-22T04:51:35.057Z,1248
2016-04-22T04:52:35.091Z,1292
2016-04-22T04:53:35.125Z,1328
2016-04-22T04:54:35.158Z,1356
2016-04-22T04:55:35.177Z,1392
2016-04-22T04:56:35.210Z,1432
2016-04-22T04:57:35.244Z,1468
2016-04-22T04:58:35.294Z,1528
2016-04-22T04:59:35.312Z,1596
2016-04-22T05:00:35.315Z,1652
2016-04-22T05:01:35.380Z,1716
2016-04-22T05:02:35.414Z,1760
2016-04-22T05:03:35.448Z,1812
2016-04-22T05:04:35.482Z,1880
2016-04-22T05:05:35.548Z,1908
2016-04-22T05:06:35.535Z,2048
2016-04-22T05:07:35.553Z,2200
2016-04-22T05:08:35.587Z,2328
2016-04-22T05:09:35.465Z,2416
2016-04-22T05:10:35.654Z,2520
2016-04-22T05:11:35.690Z,2600
2016-04-22T05:12:35.707Z,2620
2016-04-22T05:13:35.773Z,2660
2016-04-22T05:14:35.791Z,2768
2016-04-22T05:15:35.810Z,2916
2016-04-22T05:16:35.843Z,3092
2016-04-22T05:17:35.878Z,3216
2016-04-22T05:18:35.896Z,3228
2016-04-22T05:19:35.946Z,3348
2016-04-22T05:20:35.979Z,3532
2016-04-22T05:21:35.998Z,3612
2016-04-22T05:22:36.032Z,3796
2016-04-22T05:23:36.081Z,4032
2016-04-22T05:24:36.115Z,4184
2016-04-22T05:25:36.133Z,4300
2016-04-22T05:26:36.167Z,4496
2016-04-22T05:27:36.186Z,4664
2016-04-22T05:28:36.220Z,4916
2016-04-22T05:29:36.253Z,5140
2016-04-22T05:30:36.288Z,5252
2016-04-22T05:31:36.322Z,5128
2016-04-22T05:32:36.355Z,5272
2016-04-22T05:33:36.389Z,5280
2016-04-22T05:34:36.408Z,5092
2016-04-22T05:35:36.472Z,4984
2016-04-22T05:36:36.491Z,5444
2016-04-22T05:37:36.510Z,5136
2016-04-22T05:38:36.528Z,4880
2016-04-22T05:39:36.578Z,4924
2016-04-22T05:40:36.610Z,5004
2016-04-22T05:41:36.661Z,4764
2016-04-22T05:42:36.663Z,5452
2016-04-22T05:43:36.713Z,5300
2016-04-22T05:44:36.747Z,5324
2016-04-22T05:45:36.765Z,5472
2016-04-22T05:46:36.815Z,5144
2016-04-22T05:47:36.849Z,5336
2016-04-22T05:48:36.882Z,4996
2016-04-22T05:49:36.901Z,4892
2016-04-22T05:50:36.934Z,5548
2016-04-22T05:51:36.984Z,5524
2016-04-22T05:52:37.003Z,5428
2016-04-22T05:53:37.036Z,5576
2016-04-22T05:54:37.070Z,5920
2016-04-22T05:55:37.105Z,6832
2016-04-22T05:56:37.123Z,6308
2016-04-22T05:57:37.156Z,6644
2016-04-22T05:58:37.223Z,6940
2016-04-22T05:59:37.241Z,7344
2016-04-22T06:00:37.290Z,7688
2016-04-22T06:01:37.292Z,6848
2016-04-22T06:02:37.327Z,5784
2016-04-22T06:03:37.361Z,4952
2016-04-22T06:04:37.380Z,4844
2016-04-22T06:05:37.444Z,4920
2016-04-22T06:06:37.463Z,4904
2016-04-22T06:07:37.497Z,4820
2016-04-22T06:08:37.391Z,5292
2016-04-22T06:09:37.563Z,6280
2016-04-22T06:10:37.598Z,6396
2016-04-22T06:11:37.632Z,7924
2016-04-22T06:12:37.651Z,9584
2016-04-22T06:13:37.699Z,9240
2016-04-22T06:14:37.735Z,9180
2016-04-22T06:15:37.751Z,9816
2016-04-22T06:16:37.786Z,10544
2016-04-22T06:17:37.835Z,11660
2016-04-22T06:18:37.854Z,13664
2016-04-22T06:19:37.887Z,13264
2016-04-22T06:20:37.922Z,14336
2016-04-22T06:21:37.956Z,13348
2016-04-22T06:22:37.989Z,13572
2016-04-22T06:23:38.039Z,13480
2016-04-22T06:24:38.058Z,14632
2016-04-22T06:25:38.092Z,15220
2016-04-22T06:26:38.126Z,16616
2016-04-22T06:27:38.175Z,18240
2016-04-22T06:28:38.194Z,19040
2016-04-22T06:29:38.211Z,16480
2016-04-22T06:30:38.246Z,22784
2016-04-22T06:31:38.295Z,16496
2016-04-22T06:32:38.189Z,23712
2016-04-22T06:33:38.348Z,24448
2016-04-22T06:34:38.397Z,19872
2016-04-22T06:35:38.416Z,22048
2016-04-22T06:36:38.450Z,16128
2016-04-22T06:37:39.311Z,13940
2016-04-22T06:38:38.517Z,13120
2016-04-22T06:39:38.566Z,10000
2016-04-22T06:40:38.585Z,8068
2016-04-22T06:41:38.619Z,8524
2016-04-22T06:42:38.652Z,10748
2016-04-22T06:43:38.687Z,9912
2016-04-22T06:44:38.721Z,7628
2016-04-22T06:45:38.755Z,8216
2016-04-22T06:46:38.788Z,6224
2016-04-22T06:47:38.666Z,7364
2016-04-22T06:48:38.857Z,6796
2016-04-22T06:49:38.907Z,6700
2016-04-22T06:50:38.924Z,9000
2016-04-22T06:51:38.974Z,6392
2016-04-22T06:52:40.117Z,6976
2016-04-22T06:53:39.012Z,6764
2016-04-22T06:54:39.059Z,6600
2016-04-22T06:55:39.094Z,6568
2016-04-22T06:56:39.128Z,5452
2016-04-22T06:57:39.818Z,5484
2016-04-22T06:58:39.196Z,5480
2016-04-22T06:59:39.215Z,6304
2016-04-22T07:00:39.264Z,5724
2016-04-22T07:01:39.297Z,5152
2016-04-22T07:02:41.378Z,5412
2016-04-22T07:03:39.350Z,5268
2016-04-22T07:04:39.400Z,5544
2016-04-22T07:05:45.386Z,5864
2016-04-22T07:06:39.467Z,6392
2016-04-22T07:07:40.627Z,5876
2016-04-22T07:08:39.519Z,6272
2016-04-22T07:09:39.554Z,6332
2016-04-22T07:10:39.588Z,6616
2016-04-22T07:11:39.622Z,5236
2016-04-22T07:12:40.563Z,4968
2016-04-22T07:13:39.674Z,5508
2016-04-22T07:14:39.739Z,6472
2016-04-22T07:15:39.757Z,5900
2016-04-22T07:16:39.776Z,6820
2016-04-22T07:17:40.763Z,7076
2016-04-22T07:18:39.843Z,7924
2016-04-22T07:19:39.877Z,9036
2016-04-22T07:20:39.912Z,6896
2016-04-22T07:21:39.945Z,7116
2016-04-22T07:22:41.760Z,9520
2016-04-22T07:23:40.013Z,10260
2016-04-22T07:24:40.047Z,11304
2016-04-22T07:25:40.081Z,9248
2016-04-22T07:26:40.115Z,9348
2016-04-22T07:27:40.273Z,7372
2016-04-22T07:28:40.167Z,6132
2016-04-22T07:29:40.217Z,6628
2016-04-22T07:30:40.251Z,7504
2016-04-22T07:31:40.317Z,5916
2016-04-22T07:32:42.725Z,5204
2016-04-22T07:33:40.336Z,5424
2016-04-22T07:34:40.387Z,6016
2016-04-22T07:35:40.420Z,9456
2016-04-22T07:36:40.439Z,8180
2016-04-22T07:37:40.364Z,5764
2016-04-22T07:38:40.522Z,5784
2016-04-22T07:39:40.572Z,5548
2016-04-22T07:40:40.606Z,6788
2016-04-22T07:41:40.608Z,6720
2016-04-22T07:42:42.268Z,5796
2016-04-22T07:43:40.677Z,5748
2016-04-22T07:44:40.694Z,6516
2016-04-22T07:45:40.744Z,7844
2016-04-22T07:46:40.779Z,8456
2016-04-22T07:47:41.812Z,9088
2016-04-22T07:48:40.862Z,6648
2016-04-22T07:49:40.880Z,5880
2016-04-22T07:50:40.898Z,5108
2016-04-22T07:51:40.932Z,4812
2016-04-22T07:52:43.060Z,4108
2016-04-22T07:53:41.015Z,4608
2016-04-22T07:54:41.050Z,4808
2016-04-22T07:55:41.068Z,5564
2016-04-22T07:56:41.118Z,6472
2016-04-22T07:57:41.168Z,6416
2016-04-22T07:58:41.171Z,5812
2016-04-22T07:59:41.204Z,6740
2016-04-22T08:00:41.238Z,7648
2016-04-22T08:01:41.272Z,7912
2016-04-22T08:02:41.461Z,9448
2016-04-22T08:03:41.325Z,9332
2016-04-22T08:04:41.359Z,10036
2016-04-22T08:05:41.407Z,13436
2016-04-22T08:06:41.442Z,14160
2016-04-22T08:07:41.491Z,8204
2016-04-22T08:08:41.494Z,13092
2016-04-22T08:09:41.544Z,22752
2016-04-22T08:10:41.577Z,7808
2016-04-22T08:11:41.627Z,14316
2016-04-22T08:12:41.630Z,8132
2016-04-22T08:13:41.726Z,6972
2016-04-22T08:14:41.932Z,7432
2016-04-22T08:15:41.732Z,7288
2016-04-22T08:16:41.765Z,10608
2016-04-22T08:17:41.799Z,19360
2016-04-22T08:18:41.833Z,17856
2016-04-22T08:19:41.868Z,25696
2016-04-22T08:20:41.916Z,17952
2016-04-22T08:21:41.919Z,13868
2016-04-22T08:22:41.985Z,16960
2016-04-22T08:23:42.003Z,13104
2016-04-22T08:24:42.021Z,9608
2016-04-22T08:25:42.071Z,8144
2016-04-22T08:26:42.104Z,7940
2016-04-22T08:27:42.139Z,8496
2016-04-22T08:28:42.173Z,9060
2016-04-22T08:29:42.206Z,9364
2016-04-22T08:30:42.225Z,9336
2016-04-22T08:31:42.259Z,9372
2016-04-22T08:32:42.292Z,8888
2016-04-22T08:33:42.326Z,7676
2016-04-22T08:34:42.376Z,7188
2016-04-22T08:35:42.410Z,7740
2016-04-22T08:36:42.445Z,9692
2016-04-22T08:37:42.478Z,11456
2016-04-22T08:38:42.496Z,10940
2016-04-22T08:39:42.530Z,11068
2016-04-22T08:40:42.580Z,10976
2016-04-22T08:41:42.614Z,10308
2016-04-22T08:42:42.633Z,11660
2016-04-22T08:43:42.682Z,10692
2016-04-22T08:44:42.669Z,8876
2016-04-22T08:45:42.750Z,10160
2016-04-22T08:46:42.799Z,10552
2016-04-22T08:47:42.833Z,15240
2016-04-22T08:48:42.852Z,41760
2016-04-22T08:49:42.869Z,38592
2016-04-22T08:50:42.919Z,42656
2016-04-22T08:51:42.968Z,32864
2016-04-22T08:52:43.003Z,30112
2016-04-22T08:53:43.021Z,30240
2016-04-22T08:54:43.071Z,30368
2016-04-22T08:55:43.105Z,30080
2016-04-22T08:56:43.138Z,33728
2016-04-22T08:57:43.140Z,31584
2016-04-22T08:58:43.206Z,36960
2016-04-22T08:59:43.226Z,39968
2016-04-22T09:00:43.259Z,26432
2016-04-22T09:01:43.309Z,19904
2016-04-22T09:02:43.326Z,31200
2016-04-22T09:03:43.407Z,15980
2016-04-22T09:04:43.395Z,29376
2016-04-22T09:05:43.459Z,21472
2016-04-22T09:06:43.462Z,18304
2016-04-22T09:07:43.512Z,12396
2016-04-22T09:08:43.531Z,13308
2016-04-22T09:09:43.595Z,13112
2016-04-22T09:10:43.614Z,9580
2016-04-22T09:11:43.678Z,9284
2016-04-22T09:12:43.681Z,9376
2016-04-22T09:13:43.730Z,9368
2016-04-22T09:14:43.796Z,9764
2016-04-22T09:15:43.831Z,9296
2016-04-22T09:16:43.817Z,9336
2016-04-22T09:17:43.867Z,8860
2016-04-22T09:18:43.901Z,8396
2016-04-22T09:19:43.950Z,8180
2016-04-22T09:20:43.985Z,8152
2016-04-22T09:21:44.018Z,7660
2016-04-22T09:22:44.052Z,7004
2016-04-22T09:23:44.078Z,6676
2016-04-22T09:24:44.142Z,6212
2016-04-22T09:25:44.145Z,6680
2016-04-22T09:26:44.195Z,7120
2016-04-22T09:27:44.213Z,7216
2016-04-22T09:28:44.264Z,6976
2016-04-22T09:29:44.359Z,7344
2016-04-22T09:30:44.330Z,7228
2016-04-22T09:31:44.365Z,7312
2016-04-22T09:32:44.399Z,7416
2016-04-22T09:33:44.432Z,7112
2016-04-22T09:34:44.482Z,6968
2016-04-22T09:35:44.533Z,7192
2016-04-22T09:36:44.550Z,7256
2016-04-22T09:37:44.585Z,6908
2016-04-22T09:38:44.462Z,6728
2016-04-22T09:39:44.653Z,7360
2016-04-22T09:40:44.686Z,8464
2016-04-22T09:41:44.720Z,8096
2016-04-22T09:42:44.973Z,7384
2016-04-22T09:43:44.804Z,6660
2016-04-22T09:44:44.885Z,6232
2016-04-22T09:45:44.856Z,5644
2016-04-22T09:46:44.906Z,5752
2016-04-22T09:47:44.941Z,5772
2016-04-22T09:48:44.974Z,5776
2016-04-22T09:49:45.039Z,5720
2016-04-22T09:50:45.041Z,5752
2016-04-22T09:51:45.076Z,5928
2016-04-22T09:52:45.140Z,5848
2016-04-22T09:53:45.174Z,5948
2016-04-22T09:54:45.193Z,6176
2016-04-22T09:55:45.243Z,6736
2016-04-22T09:56:45.261Z,6468
2016-04-22T09:57:45.310Z,6332
2016-04-22T09:58:45.345Z,6484
2016-04-22T09:59:45.362Z,6768
2016-04-22T10:00:45.396Z,6516
2016-04-22T10:01:45.446Z,5952
2016-04-22T10:02:45.480Z,5396
2016-04-22T10:03:45.530Z,5368
2016-04-22T10:04:45.563Z,5376
2016-04-22T10:05:45.614Z,5120
2016-04-22T10:06:45.616Z,5352
2016-04-22T10:07:45.665Z,5288
2016-04-22T10:13:34.524Z,4888
2016-04-22T10:13:46.899Z,5148
2016-04-22T10:14:46.949Z,5632
2016-04-22T10:15:46.952Z,5596
2016-04-22T10:16:46.971Z,5268
2016-04-22T10:17:47.082Z,5124
2016-04-22T10:18:47.069Z,5248
2016-04-22T10:19:47.151Z,5296
2016-04-22T10:20:47.138Z,5264
2016-04-22T10:21:47.171Z,5316
2016-04-22T10:22:47.205Z,5372
2016-04-22T10:23:47.239Z,5396
2016-04-22T10:24:47.289Z,5376
2016-04-22T10:25:47.307Z,5396
2016-04-22T10:26:47.340Z,5372
2016-04-22T10:27:47.406Z,5380
2016-04-22T10:28:47.409Z,4856
2016-04-22T10:29:47.506Z,5108
2016-04-22T10:30:47.476Z,5548
2016-04-22T10:31:47.526Z,5808
2016-04-22T10:32:47.561Z,5880
2016-04-22T10:33:47.673Z,5996
2016-04-22T10:34:47.629Z,5960
2016-04-22T10:35:47.662Z,6392
2016-04-22T10:36:47.696Z,6732
2016-04-22T10:37:47.730Z,6416
2016-04-22T10:38:47.748Z,5988
2016-04-22T10:39:47.798Z,4816
2016-04-22T10:40:47.832Z,4624
2016-04-22T10:41:47.881Z,5224
2016-04-22T10:42:47.900Z,5596
2016-04-22T10:43:47.950Z,5704
2016-04-22T10:44:48.046Z,5752
2016-04-22T10:45:48.002Z,5392
2016-04-22T10:46:48.051Z,5296
2016-04-22T10:47:48.069Z,4980
2016-04-22T10:48:48.119Z,4980
2016-04-22T10:49:48.152Z,5260
2016-04-22T10:50:48.202Z,5248
2016-04-22T10:52:02.407Z,5304
2016-04-22T10:52:48.254Z,5340
2016-04-22T10:53:48.288Z,5188
2016-04-22T10:54:48.323Z,5036
2016-04-22T10:55:48.434Z,5544
2016-04-22T10:56:48.406Z,5812
2016-04-22T10:57:48.440Z,5920
2016-04-22T10:58:48.458Z,5824
2016-04-22T10:59:48.554Z,6024
2016-04-22T11:00:48.542Z,6032
2016-04-22T11:01:48.654Z,5944
2016-04-22T11:02:48.641Z,6292
2016-04-22T11:03:48.659Z,5916
2016-04-22T11:04:48.692Z,5812
2016-04-22T11:05:48.728Z,5720
2016-04-22T11:06:48.793Z,5412
2016-04-22T11:07:48.795Z,4940
2016-04-22T11:08:48.828Z,4740
2016-04-22T11:09:48.878Z,4960
2016-04-22T11:10:48.928Z,5056
2016-04-22T11:11:48.930Z,5108
2016-04-22T11:12:48.980Z,5076
2016-04-22T11:13:49.014Z,5004
2016-04-22T11:14:49.080Z,4784
2016-04-22T11:15:49.097Z,4364
2016-04-22T11:16:49.132Z,3952
2016-04-22T11:17:49.431Z,3732
2016-04-22T11:18:49.199Z,3880
2016-04-22T11:19:49.233Z,4100
2016-04-22T11:20:49.268Z,3984
2016-04-22T11:21:49.325Z,3992
2016-04-22T11:22:49.342Z,3944
2016-04-22T11:23:49.376Z,3824
2016-04-22T11:24:49.426Z,3676
2016-04-22T11:25:49.444Z,3756
2016-04-22T11:26:49.650Z,3848
2016-04-22T11:27:50.731Z,3928
2016-04-22T11:28:50.984Z,3956
2016-04-22T11:29:50.252Z,3888
2016-04-22T11:30:50.645Z,3824
2016-04-22T11:31:50.758Z,3772
2016-04-22T11:32:49.698Z,3688
2016-04-22T11:33:49.731Z,3524
2016-04-22T11:34:49.765Z,3352
2016-04-22T11:35:49.815Z,3288
2016-04-22T11:36:49.833Z,3128
2016-04-22T11:37:49.866Z,3116
2016-04-22T11:38:49.916Z,3040
2016-04-22T11:39:49.950Z,2956
2016-04-22T11:40:50.016Z,2848
2016-04-22T11:41:50.018Z,2844
2016-04-22T11:42:50.037Z,2780
2016-04-22T11:43:50.086Z,2692
2016-04-22T11:44:50.168Z,2688
2016-04-22T11:45:50.154Z,2660
2016-04-22T11:46:50.031Z,2680
2016-04-22T11:47:50.221Z,2648
2016-04-22T11:48:50.287Z,2620
2016-04-22T11:49:50.306Z,2584
2016-04-22T11:50:50.323Z,2516
2016-04-22T11:51:50.373Z,2568
2016-04-22T11:52:50.407Z,2568
2016-04-22T11:53:50.473Z,2568
2016-04-22T11:54:50.490Z,2564
2016-04-22T11:55:51.712Z,2496
2016-04-22T11:56:50.605Z,2444
2016-04-22T11:57:50.640Z,2488
2016-04-22T11:58:50.611Z,2536
2016-04-22T11:59:50.645Z,2504
2016-04-22T12:00:50.992Z,2608
2016-04-22T12:01:50.713Z,2704
2016-04-22T12:02:50.762Z,2712
2016-04-22T12:03:50.797Z,2724
2016-04-22T12:04:50.830Z,2648
2016-04-22T12:05:50.864Z,2612
2016-04-22T12:06:50.898Z,2564
2016-04-22T12:07:50.932Z,2552
2016-04-22T12:08:50.982Z,2536
2016-04-22T12:09:51.016Z,2552
2016-04-22T12:10:51.065Z,2592
2016-04-22T12:11:51.083Z,2616
2016-04-22T12:12:51.101Z,2628
2016-04-22T12:13:51.151Z,2600
2016-04-22T12:14:51.216Z,2548
2016-04-22T12:15:51.485Z,2548
2016-04-22T12:16:51.300Z,2524
2016-04-22T12:17:51.288Z,2504
2016-04-22T12:18:51.337Z,2500
2016-04-22T12:19:51.559Z,2508
2016-04-22T12:20:51.625Z,2500
2016-04-22T12:21:51.440Z,2472
2016-04-22T12:22:51.490Z,2424
2016-04-22T12:23:51.524Z,2356
2016-04-22T12:24:51.542Z,2324
2016-04-22T12:25:51.607Z,2304
2016-04-22T12:26:51.719Z,2304
2016-04-22T12:27:51.660Z,2304
2016-04-22T12:28:51.694Z,2304
2016-04-22T12:29:51.744Z,2316
2016-04-22T12:30:51.761Z,2328
2016-04-22T12:31:51.842Z,2324
2016-04-22T12:32:51.829Z,2320
2016-04-22T12:33:51.879Z,2316
2016-04-22T12:34:51.929Z,2304
2016-04-22T12:35:51.947Z,2320
2016-04-22T12:36:51.997Z,2360
2016-04-22T12:37:52.015Z,2344
2016-04-22T12:38:52.065Z,2332
2016-04-22T12:39:52.099Z,2300
2016-04-22T12:40:52.132Z,2276
2016-04-22T12:41:52.151Z,2272
2016-04-22T12:42:52.184Z,2244
2016-04-22T12:43:52.234Z,2228
2016-04-22T12:44:52.268Z,2212
2016-04-22T12:45:52.301Z,2204
2016-04-22T12:46:52.336Z,2200
2016-04-22T12:47:52.384Z,2192
2016-04-22T12:48:52.434Z,2188
2016-04-22T12:49:52.453Z,2176
2016-04-22T12:50:52.487Z,2188
2016-04-22T12:51:52.536Z,2196
2016-04-22T12:52:52.571Z,2220
2016-04-22T12:53:52.605Z,2268
2016-04-22T12:54:52.638Z,2292
2016-04-22T12:55:52.672Z,2312
2016-04-22T12:56:52.706Z,2340
2016-04-22T12:57:52.756Z,2384
2016-04-22T12:58:52.790Z,2432
2016-04-22T12:59:52.809Z,2480
2016-04-22T13:00:52.842Z,2532
2016-04-22T13:01:52.876Z,2604
2016-04-22T13:02:52.925Z,2676
2016-04-22T13:03:52.960Z,2728
2016-04-22T13:04:53.014Z,2760
2016-04-22T13:05:53.048Z,2804
2016-04-22T13:06:53.066Z,2856
2016-04-22T13:07:53.101Z,2896
2016-04-22T13:08:53.165Z,2928
2016-04-22T13:09:53.184Z,2896
2016-04-22T13:10:53.249Z,2756
2016-04-22T13:11:53.299Z,2728
2016-04-22T13:12:53.270Z,2600
2016-04-22T13:13:53.398Z,2532
2016-04-22T13:14:53.338Z,2580
2016-04-22T13:15:53.388Z,2520
2016-04-22T13:16:53.421Z,2532
2016-04-22T13:17:53.460Z,2500
2016-04-22T13:18:53.510Z,2496
2016-04-22T13:19:53.528Z,2552
2016-04-22T13:20:53.577Z,2508
2016-04-22T13:21:53.616Z,2368
2016-04-22T13:22:53.650Z,2340
2016-04-22T13:23:53.685Z,2248
2016-04-22T13:24:53.718Z,2184
2016-04-22T13:25:53.752Z,2148
2016-04-22T13:26:53.818Z,2080
2016-04-22T13:27:53.836Z,2132
2016-04-22T13:28:54.249Z,2132
2016-04-22T13:29:53.967Z,2112
2016-04-22T13:30:54.045Z,2108
2016-04-22T13:31:54.107Z,2160
2016-04-22T13:32:54.230Z,2192
2016-04-22T13:33:54.278Z,2200
2016-04-22T13:34:54.312Z,2264
2016-04-22T13:35:54.378Z,2260
2016-04-22T13:36:54.427Z,2264
2016-04-22T13:37:54.476Z,2292
2016-04-22T13:38:54.537Z,2332
2016-04-22T13:39:54.560Z,2344
2016-04-22T13:40:54.617Z,2364
2016-04-22T13:41:54.687Z,2368
2016-04-22T13:42:54.695Z,2368
2016-04-22T13:43:54.733Z,2348
2016-04-22T13:44:54.770Z,2272
2016-04-22T13:45:54.805Z,2276
2016-04-22T13:46:54.841Z,2236